sensor_id;sensor_type;location;lat;lon;timestamp;P1;durP1;ratioP1;P2;durP2;ratioP2
20138;SDS011;10230;51.502;10.800;2023-04-06T00:01:48;6.60;;;3.17;;
20138;SDS011;10230;51.502;10.800;2023-04-06T00:04:15;6.57;;;5.13;;
20138;SDS011;10230;51.502;10.800;2023-04-06T00:06:41;4.87;;;2.67;;
20138;SDS011;10230;51.502;10.800;2023-04-06T00:09:07;5.67;;;2.87;;
20138;SDS011;10230;51.502;10.800;2023-04-06T00:11:33;3.80;;;2.93;;
20138;SDS011;10230;51.502;10.800;2023-04-06T00:13:58;5.40;;;3.03;;
20138;SDS011;10230;51.502;10.800;2023-04-06T00:16:24;5.10;;;2.77;;
20138;SDS011;10230;51.502;10.800;2023-04-06T00:18:50;4.10;;;2.67;;
20138;SDS011;10230;51.502;10.800;2023-04-06T00:21:16;4.43;;;2.80;;
20138;SDS011;10230;51.502;10.800;2023-04-06T00:23:41;5.13;;;2.57;;
20138;SDS011;10230;51.502;10.800;2023-04-06T00:26:10;3.30;;;2.37;;
20138;SDS011;10230;51.502;10.800;2023-04-06T00:28:36;4.67;;;3.47;;
20138;SDS011;10230;51.502;10.800;2023-04-06T00:31:02;6.87;;;2.90;;
20138;SDS011;10230;51.502;10.800;2023-04-06T00:33:28;5.37;;;3.07;;
20138;SDS011;10230;51.502;10.800;2023-04-06T00:35:54;3.37;;;2.50;;
20138;SDS011;10230;51.502;10.800;2023-04-06T00:38:20;6.87;;;2.83;;
20138;SDS011;10230;51.502;10.800;2023-04-06T00:40:46;4.43;;;3.00;;
20138;SDS011;10230;51.502;10.800;2023-04-06T00:43:12;4.27;;;3.10;;
20138;SDS011;10230;51.502;10.800;2023-04-06T00:45:38;5.23;;;3.43;;
20138;SDS011;10230;51.502;10.800;2023-04-06T00:48:05;3.63;;;2.77;;
20138;SDS011;10230;51.502;10.800;2023-04-06T00:50:32;7.37;;;3.37;;
20138;SDS011;10230;51.502;10.800;2023-04-06T00:53:01;8.17;;;4.10;;
20138;SDS011;10230;51.502;10.800;2023-04-06T00:55:27;4.47;;;3.07;;
20138;SDS011;10230;51.502;10.800;2023-04-06T00:57:53;6.87;;;3.40;;
20138;SDS011;10230;51.502;10.800;2023-04-06T01:00:21;4.93;;;3.23;;
20138;SDS011;10230;51.502;10.800;2023-04-06T01:02:47;7.90;;;2.93;;
20138;SDS011;10230;51.502;10.800;2023-04-06T01:05:14;4.73;;;3.27;;
20138;SDS011;10230;51.502;10.800;2023-04-06T01:07:39;6.00;;;4.07;;
20138;SDS011;10230;51.502;10.800;2023-04-06T01:10:05;6.03;;;3.10;;
20138;SDS011;10230;51.502;10.800;2023-04-06T01:12:31;4.23;;;3.23;;
20138;SDS011;10230;51.502;10.800;2023-04-06T01:14:57;3.73;;;2.50;;
20138;SDS011;10230;51.502;10.800;2023-04-06T01:17:23;5.97;;;3.40;;
20138;SDS011;10230;51.502;10.800;2023-04-06T01:19:48;3.97;;;3.53;;
20138;SDS011;10230;51.502;10.800;2023-04-06T01:22:16;5.17;;;2.97;;
20138;SDS011;10230;51.502;10.800;2023-04-06T01:24:42;13.07;;;4.53;;
20138;SDS011;10230;51.502;10.800;2023-04-06T01:27:08;3.87;;;2.30;;
20138;SDS011;10230;51.502;10.800;2023-04-06T01:29:34;3.80;;;2.47;;
20138;SDS011;10230;51.502;10.800;2023-04-06T01:32:00;4.93;;;2.40;;
20138;SDS011;10230;51.502;10.800;2023-04-06T01:34:26;3.30;;;2.47;;
20138;SDS011;10230;51.502;10.800;2023-04-06T01:36:51;5.60;;;3.17;;
20138;SDS011;10230;51.502;10.800;2023-04-06T01:39:17;3.83;;;2.50;;
20138;SDS011;10230;51.502;10.800;2023-04-06T01:41:43;4.67;;;3.03;;
20138;SDS011;10230;51.502;10.800;2023-04-06T01:44:09;4.33;;;3.13;;
20138;SDS011;10230;51.502;10.800;2023-04-06T01:46:35;2.33;;;2.13;;
20138;SDS011;10230;51.502;10.800;2023-04-06T01:49:01;2.97;;;2.33;;
20138;SDS011;10230;51.502;10.800;2023-04-06T01:51:26;6.17;;;2.93;;
20138;SDS011;10230;51.502;10.800;2023-04-06T01:53:52;5.47;;;2.63;;
20138;SDS011;10230;51.502;10.800;2023-04-06T01:56:18;4.30;;;2.60;;
20138;SDS011;10230;51.502;10.800;2023-04-06T01:58:43;4.63;;;3.20;;
20138;SDS011;10230;51.502;10.800;2023-04-06T02:01:09;3.70;;;2.80;;
20138;SDS011;10230;51.502;10.800;2023-04-06T02:03:35;4.63;;;3.10;;
20138;SDS011;10230;51.502;10.800;2023-04-06T02:06:01;5.10;;;2.63;;
20138;SDS011;10230;51.502;10.800;2023-04-06T02:08:26;5.13;;;2.90;;
20138;SDS011;10230;51.502;10.800;2023-04-06T02:10:52;4.50;;;3.13;;
20138;SDS011;10230;51.502;10.800;2023-04-06T02:13:18;3.53;;;2.43;;
20138;SDS011;10230;51.502;10.800;2023-04-06T02:15:43;3.87;;;2.90;;
20138;SDS011;10230;51.502;10.800;2023-04-06T02:18:09;6.57;;;3.30;;
20138;SDS011;10230;51.502;10.800;2023-04-06T02:20:35;5.73;;;3.83;;
20138;SDS011;10230;51.502;10.800;2023-04-06T02:23:00;5.17;;;3.40;;
20138;SDS011;10230;51.502;10.800;2023-04-06T02:25:26;5.60;;;3.27;;
20138;SDS011;10230;51.502;10.800;2023-04-06T02:27:52;6.00;;;3.00;;
20138;SDS011;10230;51.502;10.800;2023-04-06T02:30:18;4.57;;;3.03;;
20138;SDS011;10230;51.502;10.800;2023-04-06T02:32:44;5.50;;;3.33;;
20138;SDS011;10230;51.502;10.800;2023-04-06T02:35:10;5.50;;;3.67;;
20138;SDS011;10230;51.502;10.800;2023-04-06T02:37:35;5.60;;;3.17;;
20138;SDS011;10230;51.502;10.800;2023-04-06T02:40:01;5.43;;;3.20;;
20138;SDS011;10230;51.502;10.800;2023-04-06T02:42:27;4.43;;;3.27;;
20138;SDS011;10230;51.502;10.800;2023-04-06T02:44:53;4.13;;;2.90;;
20138;SDS011;10230;51.502;10.800;2023-04-06T02:47:18;5.57;;;3.67;;
20138;SDS011;10230;51.502;10.800;2023-04-06T02:49:45;4.73;;;3.60;;
20138;SDS011;10230;51.502;10.800;2023-04-06T02:52:10;4.93;;;3.10;;
20138;SDS011;10230;51.502;10.800;2023-04-06T02:54:36;5.20;;;3.60;;
20138;SDS011;10230;51.502;10.800;2023-04-06T02:57:02;7.37;;;3.90;;
20138;SDS011;10230;51.502;10.800;2023-04-06T02:59:27;5.67;;;3.73;;
20138;SDS011;10230;51.502;10.800;2023-04-06T03:01:53;4.77;;;3.40;;
20138;SDS011;10230;51.502;10.800;2023-04-06T03:04:19;14.20;;;5.13;;
20138;SDS011;10230;51.502;10.800;2023-04-06T03:06:46;10.87;;;5.43;;
20138;SDS011;10230;51.502;10.800;2023-04-06T03:09:12;5.63;;;3.47;;
20138;SDS011;10230;51.502;10.800;2023-04-06T03:11:39;6.73;;;4.47;;
20138;SDS011;10230;51.502;10.800;2023-04-06T03:14:05;5.07;;;3.70;;
20138;SDS011;10230;51.502;10.800;2023-04-06T03:16:30;6.37;;;3.10;;
20138;SDS011;10230;51.502;10.800;2023-04-06T03:18:56;5.33;;;4.17;;
20138;SDS011;10230;51.502;10.800;2023-04-06T03:21:22;6.30;;;4.30;;
20138;SDS011;10230;51.502;10.800;2023-04-06T03:23:47;7.20;;;4.57;;
20138;SDS011;10230;51.502;10.800;2023-04-06T03:26:16;5.93;;;3.70;;
20138;SDS011;10230;51.502;10.800;2023-04-06T03:28:42;5.30;;;3.60;;
20138;SDS011;10230;51.502;10.800;2023-04-06T03:31:07;9.30;;;3.87;;
20138;SDS011;10230;51.502;10.800;2023-04-06T03:33:33;11.40;;;4.80;;
20138;SDS011;10230;51.502;10.800;2023-04-06T03:35:59;6.47;;;3.87;;
20138;SDS011;10230;51.502;10.800;2023-04-06T03:38:24;8.27;;;4.20;;
20138;SDS011;10230;51.502;10.800;2023-04-06T03:40:50;6.47;;;4.07;;
20138;SDS011;10230;51.502;10.800;2023-04-06T03:43:16;4.83;;;3.37;;
20138;SDS011;10230;51.502;10.800;2023-04-06T03:45:41;4.70;;;3.57;;
20138;SDS011;10230;51.502;10.800;2023-04-06T03:48:07;6.50;;;4.17;;
20138;SDS011;10230;51.502;10.800;2023-04-06T03:50:33;6.33;;;3.70;;
20138;SDS011;10230;51.502;10.800;2023-04-06T03:52:58;6.17;;;3.87;;
20138;SDS011;10230;51.502;10.800;2023-04-06T03:55:26;5.63;;;3.40;;
20138;SDS011;10230;51.502;10.800;2023-04-06T03:57:52;5.73;;;3.70;;
20138;SDS011;10230;51.502;10.800;2023-04-06T04:00:18;5.33;;;2.97;;
20138;SDS011;10230;51.502;10.800;2023-04-06T04:02:43;7.20;;;4.63;;
20138;SDS011;10230;51.502;10.800;2023-04-06T04:05:09;13.23;;;5.07;;
20138;SDS011;10230;51.502;10.800;2023-04-06T04:07:35;7.37;;;4.07;;
20138;SDS011;10230;51.502;10.800;2023-04-06T04:10:00;5.63;;;4.43;;
20138;SDS011;10230;51.502;10.800;2023-04-06T04:12:26;6.97;;;3.77;;
20138;SDS011;10230;51.502;10.800;2023-04-06T04:14:52;6.67;;;3.90;;
20138;SDS011;10230;51.502;10.800;2023-04-06T04:17:17;8.23;;;3.73;;
20138;SDS011;10230;51.502;10.800;2023-04-06T04:19:43;4.83;;;3.43;;
20138;SDS011;10230;51.502;10.800;2023-04-06T04:22:09;8.93;;;4.30;;
20138;SDS011;10230;51.502;10.800;2023-04-06T04:24:34;6.70;;;4.00;;
20138;SDS011;10230;51.502;10.800;2023-04-06T04:27:00;7.10;;;4.53;;
20138;SDS011;10230;51.502;10.800;2023-04-06T04:29:26;7.40;;;4.57;;
20138;SDS011;10230;51.502;10.800;2023-04-06T04:31:52;5.80;;;4.03;;
20138;SDS011;10230;51.502;10.800;2023-04-06T04:34:17;6.47;;;3.87;;
20138;SDS011;10230;51.502;10.800;2023-04-06T04:36:45;8.37;;;4.30;;
20138;SDS011;10230;51.502;10.800;2023-04-06T04:39:11;7.13;;;4.17;;
20138;SDS011;10230;51.502;10.800;2023-04-06T04:41:37;9.80;;;4.93;;
20138;SDS011;10230;51.502;10.800;2023-04-06T04:44:03;8.10;;;4.60;;
20138;SDS011;10230;51.502;10.800;2023-04-06T04:46:29;6.77;;;3.90;;
20138;SDS011;10230;51.502;10.800;2023-04-06T04:48:54;6.90;;;4.37;;
20138;SDS011;10230;51.502;10.800;2023-04-06T04:51:20;8.27;;;5.03;;
20138;SDS011;10230;51.502;10.800;2023-04-06T04:53:46;8.00;;;5.00;;
20138;SDS011;10230;51.502;10.800;2023-04-06T04:56:12;6.57;;;4.13;;
20138;SDS011;10230;51.502;10.800;2023-04-06T04:58:37;5.37;;;3.70;;
20138;SDS011;10230;51.502;10.800;2023-04-06T05:01:03;8.33;;;4.17;;
20138;SDS011;10230;51.502;10.800;2023-04-06T05:03:29;6.37;;;4.03;;
20138;SDS011;10230;51.502;10.800;2023-04-06T05:05:54;7.60;;;4.40;;
20138;SDS011;10230;51.502;10.800;2023-04-06T05:08:20;6.20;;;3.83;;
20138;SDS011;10230;51.502;10.800;2023-04-06T05:10:46;8.63;;;4.27;;
20138;SDS011;10230;51.502;10.800;2023-04-06T05:13:13;6.13;;;4.53;;
20138;SDS011;10230;51.502;10.800;2023-04-06T05:15:39;6.63;;;3.90;;
20138;SDS011;10230;51.502;10.800;2023-04-06T05:18:07;9.20;;;4.63;;
20138;SDS011;10230;51.502;10.800;2023-04-06T05:20:34;6.90;;;3.83;;
20138;SDS011;10230;51.502;10.800;2023-04-06T05:23:00;11.07;;;4.60;;
20138;SDS011;10230;51.502;10.800;2023-04-06T05:25:26;10.47;;;4.97;;
20138;SDS011;10230;51.502;10.800;2023-04-06T05:27:52;11.43;;;6.20;;
20138;SDS011;10230;51.502;10.800;2023-04-06T05:30:18;6.30;;;4.60;;
20138;SDS011;10230;51.502;10.800;2023-04-06T05:32:44;8.07;;;5.03;;
20138;SDS011;10230;51.502;10.800;2023-04-06T05:35:10;7.97;;;4.20;;
20138;SDS011;10230;51.502;10.800;2023-04-06T05:37:37;8.07;;;4.40;;
20138;SDS011;10230;51.502;10.800;2023-04-06T05:40:03;6.93;;;4.63;;
20138;SDS011;10230;51.502;10.800;2023-04-06T05:42:36;7.13;;;4.57;;
20138;SDS011;10230;51.502;10.800;2023-04-06T05:45:03;6.43;;;4.20;;
20138;SDS011;10230;51.502;10.800;2023-04-06T05:47:31;7.33;;;4.37;;
20138;SDS011;10230;51.502;10.800;2023-04-06T05:49:56;8.63;;;5.10;;
20138;SDS011;10230;51.502;10.800;2023-04-06T05:52:22;6.33;;;4.90;;
20138;SDS011;10230;51.502;10.800;2023-04-06T05:54:48;7.83;;;4.60;;
20138;SDS011;10230;51.502;10.800;2023-04-06T05:57:14;7.37;;;4.73;;
20138;SDS011;10230;51.502;10.800;2023-04-06T05:59:39;11.00;;;5.17;;
20138;SDS011;10230;51.502;10.800;2023-04-06T06:02:05;13.87;;;6.93;;
20138;SDS011;10230;51.502;10.800;2023-04-06T06:04:31;10.23;;;5.30;;
20138;SDS011;10230;51.502;10.800;2023-04-06T06:06:56;8.73;;;4.67;;
20138;SDS011;10230;51.502;10.800;2023-04-06T06:09:22;7.70;;;4.87;;
20138;SDS011;10230;51.502;10.800;2023-04-06T06:11:49;7.93;;;5.07;;
20138;SDS011;10230;51.502;10.800;2023-04-06T06:14:16;7.17;;;4.23;;
20138;SDS011;10230;51.502;10.800;2023-04-06T06:16:42;7.97;;;4.70;;
20138;SDS011;10230;51.502;10.800;2023-04-06T06:19:07;5.93;;;4.70;;
20138;SDS011;10230;51.502;10.800;2023-04-06T06:21:33;5.70;;;4.07;;
20138;SDS011;10230;51.502;10.800;2023-04-06T06:23:59;6.43;;;4.60;;
20138;SDS011;10230;51.502;10.800;2023-04-06T06:26:26;6.87;;;5.10;;
20138;SDS011;10230;51.502;10.800;2023-04-06T06:28:51;7.13;;;4.83;;
20138;SDS011;10230;51.502;10.800;2023-04-06T06:31:17;6.57;;;4.57;;
20138;SDS011;10230;51.502;10.800;2023-04-06T06:33:45;9.50;;;4.90;;
20138;SDS011;10230;51.502;10.800;2023-04-06T06:36:15;5.83;;;4.63;;
20138;SDS011;10230;51.502;10.800;2023-04-06T06:38:41;6.93;;;4.57;;
20138;SDS011;10230;51.502;10.800;2023-04-06T06:41:07;5.83;;;4.63;;
20138;SDS011;10230;51.502;10.800;2023-04-06T06:43:33;5.53;;;4.40;;
20138;SDS011;10230;51.502;10.800;2023-04-06T06:45:58;7.20;;;4.43;;
20138;SDS011;10230;51.502;10.800;2023-04-06T06:48:24;9.83;;;4.87;;
20138;SDS011;10230;51.502;10.800;2023-04-06T06:50:50;6.53;;;4.67;;
20138;SDS011;10230;51.502;10.800;2023-04-06T06:53:16;8.77;;;4.60;;
20138;SDS011;10230;51.502;10.800;2023-04-06T06:55:42;7.33;;;5.00;;
20138;SDS011;10230;51.502;10.800;2023-04-06T06:58:09;5.67;;;4.23;;
20138;SDS011;10230;51.502;10.800;2023-04-06T07:00:35;5.47;;;4.53;;
20138;SDS011;10230;51.502;10.800;2023-04-06T07:03:01;6.30;;;5.27;;
20138;SDS011;10230;51.502;10.800;2023-04-06T07:05:27;6.83;;;4.53;;
20138;SDS011;10230;51.502;10.800;2023-04-06T07:07:54;6.93;;;4.03;;
20138;SDS011;10230;51.502;10.800;2023-04-06T07:10:20;5.43;;;4.07;;
20138;SDS011;10230;51.502;10.800;2023-04-06T07:12:46;4.77;;;3.93;;
20138;SDS011;10230;51.502;10.800;2023-04-06T07:15:12;7.33;;;4.40;;
20138;SDS011;10230;51.502;10.800;2023-04-06T07:17:37;6.57;;;5.03;;
20138;SDS011;10230;51.502;10.800;2023-04-06T07:20:03;7.80;;;4.50;;
20138;SDS011;10230;51.502;10.800;2023-04-06T07:22:29;6.03;;;3.90;;
20138;SDS011;10230;51.502;10.800;2023-04-06T07:24:56;5.07;;;4.57;;
20138;SDS011;10230;51.502;10.800;2023-04-06T07:27:21;7.63;;;4.60;;
20138;SDS011;10230;51.502;10.800;2023-04-06T07:29:47;5.87;;;4.57;;
20138;SDS011;10230;51.502;10.800;2023-04-06T07:32:12;6.73;;;4.30;;
20138;SDS011;10230;51.502;10.800;2023-04-06T07:34:38;6.97;;;4.87;;
20138;SDS011;10230;51.502;10.800;2023-04-06T07:37:04;6.13;;;3.93;;
20138;SDS011;10230;51.502;10.800;2023-04-06T07:39:30;4.70;;;4.07;;
20138;SDS011;10230;51.502;10.800;2023-04-06T07:41:56;5.33;;;3.83;;
20138;SDS011;10230;51.502;10.800;2023-04-06T07:44:22;5.13;;;4.10;;
20138;SDS011;10230;51.502;10.800;2023-04-06T07:46:48;5.30;;;4.10;;
20138;SDS011;10230;51.502;10.800;2023-04-06T07:49:14;7.07;;;4.33;;
20138;SDS011;10230;51.502;10.800;2023-04-06T07:51:39;4.63;;;3.83;;
20138;SDS011;10230;51.502;10.800;2023-04-06T07:54:05;4.27;;;3.87;;
20138;SDS011;10230;51.502;10.800;2023-04-06T07:56:31;6.37;;;3.80;;
20138;SDS011;10230;51.502;10.800;2023-04-06T07:58:57;5.30;;;3.40;;
20138;SDS011;10230;51.502;10.800;2023-04-06T08:01:23;5.43;;;3.30;;
20138;SDS011;10230;51.502;10.800;2023-04-06T08:03:50;6.70;;;3.37;;
20138;SDS011;10230;51.502;10.800;2023-04-06T08:06:16;5.83;;;3.37;;
20138;SDS011;10230;51.502;10.800;2023-04-06T08:08:42;3.65;;;3.28;;
20138;SDS011;10230;51.502;10.800;2023-04-06T08:11:08;3.33;;;3.03;;
20138;SDS011;10230;51.502;10.800;2023-04-06T08:13:34;4.20;;;2.97;;
20138;SDS011;10230;51.502;10.800;2023-04-06T08:16:01;5.70;;;3.28;;
20138;SDS011;10230;51.502;10.800;2023-04-06T08:18:27;5.78;;;2.92;;
20138;SDS011;10230;51.502;10.800;2023-04-06T08:20:55;2.50;;;2.30;;
20138;SDS011;10230;51.502;10.800;2023-04-06T08:23:21;3.72;;;2.90;;
20138;SDS011;10230;51.502;10.800;2023-04-06T08:25:47;3.45;;;2.67;;
20138;SDS011;10230;51.502;10.800;2023-04-06T08:28:13;3.92;;;2.40;;
20138;SDS011;10230;51.502;10.800;2023-04-06T08:30:41;3.88;;;3.25;;
20138;SDS011;10230;51.502;10.800;2023-04-06T08:33:07;4.72;;;2.95;;
20138;SDS011;10230;51.502;10.800;2023-04-06T08:35:33;3.08;;;2.78;;
20138;SDS011;10230;51.502;10.800;2023-04-06T08:37:59;5.00;;;3.20;;
20138;SDS011;10230;51.502;10.800;2023-04-06T08:40:25;4.30;;;3.38;;
20138;SDS011;10230;51.502;10.800;2023-04-06T08:42:52;3.20;;;2.90;;
20138;SDS011;10230;51.502;10.800;2023-04-06T08:45:19;3.50;;;3.10;;
20138;SDS011;10230;51.502;10.800;2023-04-06T08:47:55;4.68;;;3.38;;
20138;SDS011;10230;51.502;10.800;2023-04-06T08:50:24;6.40;;;3.17;;
20138;SDS011;10230;51.502;10.800;2023-04-06T08:52:51;5.00;;;3.47;;
20138;SDS011;10230;51.502;10.800;2023-04-06T08:55:16;4.15;;;3.20;;
20138;SDS011;10230;51.502;10.800;2023-04-06T08:57:42;4.18;;;3.55;;
20138;SDS011;10230;51.502;10.800;2023-04-06T09:00:09;3.75;;;3.45;;
20138;SDS011;10230;51.502;10.800;2023-04-06T09:02:39;3.60;;;3.30;;
20138;SDS011;10230;51.502;10.800;2023-04-06T09:05:07;5.15;;;3.33;;
20138;SDS011;10230;51.502;10.800;2023-04-06T09:07:35;5.60;;;3.53;;
20138;SDS011;10230;51.502;10.800;2023-04-06T09:10:01;4.20;;;3.80;;
20138;SDS011;10230;51.502;10.800;2023-04-06T09:12:29;4.30;;;3.90;;
20138;SDS011;10230;51.502;10.800;2023-04-06T09:14:55;4.30;;;3.90;;
20138;SDS011;10230;51.502;10.800;2023-04-06T09:17:23;4.97;;;3.67;;
20138;SDS011;10230;51.502;10.800;2023-04-06T09:19:49;4.95;;;3.53;;
20138;SDS011;10230;51.502;10.800;2023-04-06T09:22:15;4.15;;;3.60;;
20138;SDS011;10230;51.502;10.800;2023-04-06T09:24:46;4.65;;;4.28;;
20138;SDS011;10230;51.502;10.800;2023-04-06T09:27:13;5.75;;;4.72;;
20138;SDS011;10230;51.502;10.800;2023-04-06T09:29:40;4.20;;;3.78;;
20138;SDS011;10230;51.502;10.800;2023-04-06T09:32:07;4.07;;;3.67;;
20138;SDS011;10230;51.502;10.800;2023-04-06T09:34:36;3.75;;;3.45;;
20138;SDS011;10230;51.502;10.800;2023-04-06T09:37:18;4.22;;;3.85;;
20138;SDS011;10230;51.502;10.800;2023-04-06T09:39:44;4.40;;;4.00;;
20138;SDS011;10230;51.502;10.800;2023-04-06T09:42:12;3.97;;;3.67;;
20138;SDS011;10230;51.502;10.800;2023-04-06T09:44:38;4.50;;;4.10;;
20138;SDS011;10230;51.502;10.800;2023-04-06T09:47:05;6.15;;;4.95;;
20138;SDS011;10230;51.502;10.800;2023-04-06T09:49:33;6.00;;;4.07;;
20138;SDS011;10230;51.502;10.800;2023-04-06T09:52:01;5.50;;;5.00;;
20138;SDS011;10230;51.502;10.800;2023-04-06T09:54:28;5.18;;;4.68;;
20138;SDS011;10230;51.502;10.800;2023-04-06T09:57:07;6.22;;;4.18;;
20138;SDS011;10230;51.502;10.800;2023-04-06T09:59:44;5.60;;;4.60;;
20138;SDS011;10230;51.502;10.800;2023-04-06T10:02:45;6.03;;;5.43;;
20138;SDS011;10230;51.502;10.800;2023-04-06T10:08:10;4.80;;;4.22;;
20138;SDS011;10230;51.502;10.800;2023-04-06T10:10:37;4.78;;;4.25;;
20138;SDS011;10230;51.502;10.800;2023-04-06T10:13:06;4.60;;;4.20;;
20138;SDS011;10230;51.502;10.800;2023-04-06T10:15:32;4.60;;;4.20;;
20138;SDS011;10230;51.502;10.800;2023-04-06T10:17:59;6.03;;;5.03;;
20138;SDS011;10230;51.502;10.800;2023-04-06T10:23:45;5.45;;;4.75;;
20138;SDS011;10230;51.502;10.800;2023-04-06T10:26:15;6.10;;;4.68;;
20138;SDS011;10230;51.502;10.800;2023-04-06T10:28:43;5.32;;;4.82;;
20138;SDS011;10230;51.502;10.800;2023-04-06T10:31:09;4.95;;;4.55;;
20138;SDS011;10230;51.502;10.800;2023-04-06T10:33:35;4.70;;;4.07;;
20138;SDS011;10230;51.502;10.800;2023-04-06T10:38:40;4.60;;;3.35;;
20138;SDS011;10230;51.502;10.800;2023-04-06T10:41:07;4.18;;;3.75;;
20138;SDS011;10230;51.502;10.800;2023-04-06T10:43:34;3.65;;;3.33;;
20138;SDS011;10230;51.502;10.800;2023-04-06T10:46:02;3.17;;;2.88;;
20138;SDS011;10230;51.502;10.800;2023-04-06T10:51:09;3.60;;;3.30;;
20138;SDS011;10230;51.502;10.800;2023-04-06T10:53:35;3.22;;;2.92;;
20138;SDS011;10230;51.502;10.800;2023-04-06T10:56:01;4.68;;;3.85;;
20138;SDS011;10230;51.502;10.800;2023-04-06T10:58:28;5.53;;;4.70;;
20138;SDS011;10230;51.502;10.800;2023-04-06T11:00:55;4.32;;;3.65;;
20138;SDS011;10230;51.502;10.800;2023-04-06T11:03:21;4.68;;;4.28;;
20138;SDS011;10230;51.502;10.800;2023-04-06T11:05:49;4.60;;;4.20;;
20138;SDS011;10230;51.502;10.800;2023-04-06T11:08:22;5.07;;;4.53;;
20138;SDS011;10230;51.502;10.800;2023-04-06T11:10:48;4.63;;;4.20;;
20138;SDS011;10230;51.502;10.800;2023-04-06T11:13:14;4.72;;;4.30;;
20138;SDS011;10230;51.502;10.800;2023-04-06T11:15:40;5.00;;;3.97;;
20138;SDS011;10230;51.502;10.800;2023-04-06T11:18:06;5.50;;;4.22;;
20138;SDS011;10230;51.502;10.800;2023-04-06T11:20:32;4.03;;;3.63;;
20138;SDS011;10230;51.502;10.800;2023-04-06T11:22:58;4.55;;;3.75;;
20138;SDS011;10230;51.502;10.800;2023-04-06T11:25:26;4.32;;;3.80;;
20138;SDS011;10230;51.502;10.800;2023-04-06T11:27:52;4.18;;;3.83;;
20138;SDS011;10230;51.502;10.800;2023-04-06T11:30:19;4.03;;;3.70;;
20138;SDS011;10230;51.502;10.800;2023-04-06T11:32:45;4.38;;;3.63;;
20138;SDS011;10230;51.502;10.800;2023-04-06T11:35:13;4.22;;;3.45;;
20138;SDS011;10230;51.502;10.800;2023-04-06T11:37:45;3.95;;;3.40;;
20138;SDS011;10230;51.502;10.800;2023-04-06T11:40:11;4.53;;;3.45;;
20138;SDS011;10230;51.502;10.800;2023-04-06T11:42:37;3.65;;;3.25;;
20138;SDS011;10230;51.502;10.800;2023-04-06T11:45:03;3.50;;;3.20;;
20138;SDS011;10230;51.502;10.800;2023-04-06T11:47:31;3.85;;;3.47;;
20138;SDS011;10230;51.502;10.800;2023-04-06T11:50:07;4.75;;;3.90;;
20138;SDS011;10230;51.502;10.800;2023-04-06T11:52:34;3.63;;;3.33;;
20138;SDS011;10230;51.502;10.800;2023-04-06T11:55:10;3.78;;;2.97;;
20138;SDS011;10230;51.502;10.800;2023-04-06T11:57:37;5.70;;;3.58;;
20138;SDS011;10230;51.502;10.800;2023-04-06T12:00:03;4.13;;;3.58;;
20138;SDS011;10230;51.502;10.800;2023-04-06T12:02:29;4.15;;;3.42;;
20138;SDS011;10230;51.502;10.800;2023-04-06T12:04:57;3.72;;;3.40;;
20138;SDS011;10230;51.502;10.800;2023-04-06T12:07:23;3.75;;;3.17;;
20138;SDS011;10230;51.502;10.800;2023-04-06T12:09:49;4.47;;;3.63;;
20138;SDS011;10230;51.502;10.800;2023-04-06T12:12:15;4.20;;;3.70;;
20138;SDS011;10230;51.502;10.800;2023-04-06T12:14:41;3.88;;;3.30;;
20138;SDS011;10230;51.502;10.800;2023-04-06T12:17:07;4.88;;;3.83;;
20138;SDS011;10230;51.502;10.800;2023-04-06T12:19:33;3.60;;;3.30;;
20138;SDS011;10230;51.502;10.800;2023-04-06T12:22:00;4.43;;;3.83;;
20138;SDS011;10230;51.502;10.800;2023-04-06T12:24:26;4.22;;;3.83;;
20138;SDS011;10230;51.502;10.800;2023-04-06T12:26:53;4.80;;;3.67;;
20138;SDS011;10230;51.502;10.800;2023-04-06T12:29:19;6.38;;;4.10;;
20138;SDS011;10230;51.502;10.800;2023-04-06T12:31:45;4.32;;;3.83;;
20138;SDS011;10230;51.502;10.800;2023-04-06T12:34:11;4.90;;;3.95;;
20138;SDS011;10230;51.502;10.800;2023-04-06T12:36:38;4.32;;;3.75;;
20138;SDS011;10230;51.502;10.800;2023-04-06T12:39:04;4.70;;;4.20;;
20138;SDS011;10230;51.502;10.800;2023-04-06T12:41:30;6.10;;;4.15;;
20138;SDS011;10230;51.502;10.800;2023-04-06T12:43:57;4.78;;;4.15;;
20138;SDS011;10230;51.502;10.800;2023-04-06T12:46:27;5.60;;;3.42;;
20138;SDS011;10230;51.502;10.800;2023-04-06T12:48:55;4.78;;;4.03;;
20138;SDS011;10230;51.502;10.800;2023-04-06T12:51:24;5.88;;;4.88;;
20138;SDS011;10230;51.502;10.800;2023-04-06T12:53:50;6.15;;;4.57;;
20138;SDS011;10230;51.502;10.800;2023-04-06T12:56:16;4.45;;;4.00;;
20138;SDS011;10230;51.502;10.800;2023-04-06T12:58:43;7.18;;;5.18;;
20138;SDS011;10230;51.502;10.800;2023-04-06T13:01:09;5.03;;;3.75;;
20138;SDS011;10230;51.502;10.800;2023-04-06T13:03:37;4.57;;;3.88;;
20138;SDS011;10230;51.502;10.800;2023-04-06T13:06:03;5.30;;;3.80;;
20138;SDS011;10230;51.502;10.800;2023-04-06T13:08:29;5.32;;;3.80;;
20138;SDS011;10230;51.502;10.800;2023-04-06T13:10:55;5.72;;;4.35;;
20138;SDS011;10230;51.502;10.800;2023-04-06T13:13:25;5.43;;;3.92;;
20138;SDS011;10230;51.502;10.800;2023-04-06T13:15:53;5.35;;;4.00;;
20138;SDS011;10230;51.502;10.800;2023-04-06T13:18:21;6.07;;;4.55;;
20138;SDS011;10230;51.502;10.800;2023-04-06T13:20:48;4.47;;;3.50;;
20138;SDS011;10230;51.502;10.800;2023-04-06T13:23:14;5.80;;;4.30;;
20138;SDS011;10230;51.502;10.800;2023-04-06T13:25:40;5.70;;;4.32;;
20138;SDS011;10230;51.502;10.800;2023-04-06T13:28:05;3.92;;;3.35;;
20138;SDS011;10230;51.502;10.800;2023-04-06T13:30:32;5.65;;;4.05;;
20138;SDS011;10230;51.502;10.800;2023-04-06T13:32:57;6.13;;;3.97;;
20138;SDS011;10230;51.502;10.800;2023-04-06T13:35:23;5.05;;;3.88;;
20138;SDS011;10230;51.502;10.800;2023-04-06T13:37:49;3.88;;;3.47;;
20138;SDS011;10230;51.502;10.800;2023-04-06T13:40:17;5.07;;;3.65;;
20138;SDS011;10230;51.502;10.800;2023-04-06T13:42:43;4.97;;;3.58;;
20138;SDS011;10230;51.502;10.800;2023-04-06T13:45:10;4.55;;;3.50;;
20138;SDS011;10230;51.502;10.800;2023-04-06T13:47:36;3.75;;;3.25;;
20138;SDS011;10230;51.502;10.800;2023-04-06T13:50:02;4.72;;;3.65;;
20138;SDS011;10230;51.502;10.800;2023-04-06T13:52:28;4.15;;;3.05;;
20138;SDS011;10230;51.502;10.800;2023-04-06T13:54:54;4.93;;;3.42;;
20138;SDS011;10230;51.502;10.800;2023-04-06T13:57:20;4.53;;;3.45;;
20138;SDS011;10230;51.502;10.800;2023-04-06T13:59:45;4.68;;;3.55;;
20138;SDS011;10230;51.502;10.800;2023-04-06T14:02:11;4.97;;;4.03;;
20138;SDS011;10230;51.502;10.800;2023-04-06T14:04:37;4.45;;;3.47;;
20138;SDS011;10230;51.502;10.800;2023-04-06T14:07:03;4.40;;;3.47;;
20138;SDS011;10230;51.502;10.800;2023-04-06T14:09:32;4.78;;;3.38;;
20138;SDS011;10230;51.502;10.800;2023-04-06T14:11:58;5.18;;;3.45;;
20138;SDS011;10230;51.502;10.800;2023-04-06T14:14:24;8.63;;;3.70;;
20138;SDS011;10230;51.502;10.800;2023-04-06T14:16:51;4.13;;;3.17;;
20138;SDS011;10230;51.502;10.800;2023-04-06T14:19:17;6.75;;;3.30;;
20138;SDS011;10230;51.502;10.800;2023-04-06T14:21:47;5.00;;;3.20;;
20138;SDS011;10230;51.502;10.800;2023-04-06T14:24:13;7.28;;;3.70;;
20138;SDS011;10230;51.502;10.800;2023-04-06T14:26:40;5.95;;;3.95;;
20138;SDS011;10230;51.502;10.800;2023-04-06T14:29:08;5.72;;;3.20;;
20138;SDS011;10230;51.502;10.800;2023-04-06T14:31:34;6.38;;;3.75;;
20138;SDS011;10230;51.502;10.800;2023-04-06T14:34:01;7.13;;;4.00;;
20138;SDS011;10230;51.502;10.800;2023-04-06T14:36:27;4.47;;;3.60;;
20138;SDS011;10230;51.502;10.800;2023-04-06T14:38:54;5.18;;;3.78;;
20138;SDS011;10230;51.502;10.800;2023-04-06T14:41:22;6.65;;;2.97;;